createdAt,value
2022-12-03T00:00:18.035Z,1.60
2022-12-03T00:02:45.860Z,1.60
2022-12-03T00:05:13.671Z,1.60
2022-12-03T00:07:41.458Z,1.60
2022-12-03T00:10:11.075Z,1.60
2022-12-03T00:12:38.736Z,1.70
2022-12-03T00:15:07.110Z,1.60
2022-12-03T00:17:34.826Z,1.70
2022-12-03T00:20:02.527Z,1.60
2022-12-03T00:22:30.248Z,1.60
2022-12-03T00:24:57.957Z,1.50
2022-12-03T00:27:26.979Z,1.60
2022-12-03T00:29:54.635Z,1.60
2022-12-03T00:32:22.317Z,1.60
2022-12-03T00:34:50.156Z,1.60
2022-12-03T00:37:17.954Z,1.60
2022-12-03T00:39:45.765Z,1.60
2022-12-03T00:42:13.451Z,1.60
2022-12-03T00:44:42.498Z,1.70
2022-12-03T00:47:10.634Z,1.70
2022-12-03T00:49:38.360Z,1.70
2022-12-03T00:52:06.075Z,1.70
2022-12-03T00:54:33.808Z,1.70
2022-12-03T00:57:01.526Z,1.80
2022-12-03T00:59:29.197Z,1.80
2022-12-03T01:01:58.728Z,1.80
2022-12-03T01:04:26.554Z,1.80
2022-12-03T01:06:54.324Z,1.90
2022-12-03T01:09:22.035Z,2.00
2022-12-03T01:11:49.742Z,1.90
2022-12-03T01:14:18.583Z,1.90
2022-12-03T01:16:46.886Z,1.90
2022-12-03T01:19:16.331Z,1.90
2022-12-03T01:21:44.595Z,1.90
2022-12-03T01:24:12.472Z,1.90
2022-12-03T01:26:40.193Z,1.90
2022-12-03T01:29:07.885Z,1.90
2022-12-03T01:31:52.129Z,1.90
2022-12-03T01:34:21.142Z,1.90
2022-12-03T01:36:48.837Z,1.90
2022-12-03T01:39:16.553Z,2.10
2022-12-03T01:41:44.330Z,2.10
2022-12-03T01:44:16.026Z,2.00
2022-12-03T01:46:44.227Z,2.00
2022-12-03T01:49:15.128Z,2.00
2022-12-03T01:51:46.109Z,2.10
2022-12-03T01:54:16.822Z,2.00
2022-12-03T01:56:44.827Z,2.00
2022-12-03T01:59:14.836Z,2.10
2022-12-03T02:01:42.661Z,2.00
2022-12-03T02:04:11.646Z,2.10
2022-12-03T02:06:39.374Z,2.00
2022-12-03T02:09:10.482Z,2.10
2022-12-03T02:11:39.901Z,2.10
2022-12-03T02:14:09.024Z,2.10
2022-12-03T02:16:38.050Z,2.10
2022-12-03T02:19:09.667Z,2.10
2022-12-03T02:21:41.628Z,2.10
2022-12-03T02:24:13.253Z,2.10
2022-12-03T02:26:42.386Z,2.10
2022-12-03T02:29:10.124Z,2.10
2022-12-03T02:31:37.960Z,2.10
2022-12-03T02:34:06.456Z,2.10
2022-12-03T02:36:34.231Z,2.10
2022-12-03T02:39:02.117Z,2.10
2022-12-03T02:41:43.918Z,2.10
2022-12-03T02:44:13.209Z,2.10
2022-12-03T02:46:41.148Z,2.20
2022-12-03T02:49:08.893Z,2.10
2022-12-03T02:51:36.888Z,2.10
2022-12-03T02:54:04.913Z,2.20
2022-12-03T02:56:33.422Z,2.10
2022-12-03T02:59:02.512Z,2.20
2022-12-03T03:01:31.645Z,2.20
2022-12-03T03:04:00.633Z,2.20
2022-12-03T03:06:28.455Z,2.20
2022-12-03T03:08:56.547Z,2.20
2022-12-03T03:11:24.495Z,2.20
2022-12-03T03:13:52.207Z,2.10
2022-12-03T03:16:19.973Z,2.20
2022-12-03T03:18:49.651Z,2.20
2022-12-03T03:21:17.662Z,2.10
2022-12-03T03:23:45.357Z,2.20
2022-12-03T03:26:14.189Z,2.20
2022-12-03T03:28:44.024Z,2.10
2022-12-03T03:31:12.840Z,2.20
2022-12-03T03:33:42.425Z,2.20
2022-12-03T03:36:11.711Z,2.10
2022-12-03T03:38:39.935Z,2.20
2022-12-03T03:41:08.882Z,2.20
2022-12-03T03:43:37.945Z,2.30
2022-12-03T03:46:06.301Z,2.20
2022-12-03T03:48:35.043Z,2.30
2022-12-03T03:51:03.556Z,2.20
2022-12-03T03:53:32.660Z,2.10
2022-12-03T03:56:00.358Z,2.10
2022-12-03T03:58:28.168Z,2.10
2022-12-03T04:00:55.920Z,2.00
2022-12-03T04:03:23.670Z,2.10
2022-12-03T04:05:51.386Z,2.10
2022-12-03T04:08:19.439Z,2.10
2022-12-03T04:11:06.097Z,2.10
2022-12-03T04:13:33.776Z,2.20
2022-12-03T04:16:01.471Z,2.10
2022-12-03T04:18:44.024Z,2.10
2022-12-03T04:21:29.475Z,2.20
2022-12-03T04:23:57.170Z,2.10
2022-12-03T04:26:43.806Z,2.10
2022-12-03T04:29:11.573Z,2.10
2022-12-03T04:31:56.896Z,2.10
2022-12-03T04:34:42.065Z,2.00
2022-12-03T04:37:09.837Z,2.00
2022-12-03T04:39:37.892Z,2.00
2022-12-03T04:42:07.368Z,2.00
2022-12-03T04:44:36.680Z,2.00
2022-12-03T04:47:06.562Z,2.00
2022-12-03T04:49:34.676Z,2.00
2022-12-03T04:52:02.359Z,2.00
2022-12-03T04:54:30.295Z,2.10
2022-12-03T04:56:58.025Z,2.00
2022-12-03T04:59:27.067Z,2.00
2022-12-03T05:01:54.922Z,2.00
2022-12-03T05:04:22.812Z,2.00
2022-12-03T05:06:50.835Z,2.00
2022-12-03T05:09:18.548Z,2.00
2022-12-03T05:11:46.274Z,2.00
2022-12-03T05:14:13.965Z,1.90
2022-12-03T05:16:43.031Z,1.90
2022-12-03T05:19:10.941Z,2.10
2022-12-03T05:21:37.664Z,2.00
2022-12-03T05:24:05.943Z,2.00
2022-12-03T05:26:33.673Z,1.90
2022-12-03T05:29:01.463Z,1.90
2022-12-03T05:31:29.307Z,1.90
2022-12-03T05:33:58.385Z,1.90
2022-12-03T05:36:26.293Z,1.90
2022-12-03T05:38:53.972Z,1.90
2022-12-03T05:41:39.206Z,2.00
2022-12-03T05:44:06.920Z,1.90
2022-12-03T05:46:34.691Z,2.00
2022-12-03T05:49:03.798Z,2.00
2022-12-03T05:51:31.477Z,2.00
2022-12-03T05:53:59.153Z,2.10
2022-12-03T05:56:26.867Z,2.00
2022-12-03T05:58:54.563Z,2.00
2022-12-03T06:01:22.244Z,2.10
2022-12-03T06:03:50.105Z,2.20
2022-12-03T06:06:19.236Z,2.10
2022-12-03T06:08:46.967Z,2.10
2022-12-03T06:11:14.685Z,2.10
2022-12-03T06:13:42.362Z,2.10
2022-12-03T06:16:10.076Z,2.00
2022-12-03T06:18:37.822Z,1.90
2022-12-03T06:21:05.604Z,2.00
2022-12-03T06:23:34.627Z,1.90
2022-12-03T06:26:02.341Z,1.90
2022-12-03T06:28:29.996Z,2.00
2022-12-03T06:30:57.736Z,2.00
2022-12-03T06:33:25.516Z,2.00
2022-12-03T06:35:53.396Z,1.90
2022-12-03T06:38:22.197Z,1.90
2022-12-03T06:40:51.220Z,2.00
2022-12-03T06:43:18.915Z,2.00
2022-12-03T06:45:47.966Z,2.00
2022-12-03T06:48:15.966Z,2.00
2022-12-03T06:50:43.665Z,2.00
2022-12-03T06:53:11.354Z,2.00
2022-12-03T06:55:39.047Z,2.00
2022-12-03T06:58:08.088Z,2.00
2022-12-03T07:00:35.773Z,2.00
2022-12-03T07:03:03.565Z,2.00
2022-12-03T07:05:31.378Z,2.00
2022-12-03T07:07:59.514Z,2.00
2022-12-03T07:10:27.329Z,2.00
2022-12-03T07:12:55.005Z,2.00
2022-12-03T07:15:24.040Z,1.90
2022-12-03T07:17:52.054Z,2.00
2022-12-03T07:20:19.852Z,2.00
2022-12-03T07:22:47.509Z,2.00
2022-12-03T07:25:21.238Z,2.00
2022-12-03T07:27:50.726Z,2.00
2022-12-03T07:30:18.720Z,2.00
2022-12-03T07:32:47.736Z,2.00
2022-12-03T07:35:17.282Z,2.00
2022-12-03T07:37:44.973Z,2.00
2022-12-03T07:40:13.200Z,2.00
2022-12-03T07:42:40.879Z,2.00
2022-12-03T07:45:09.414Z,2.00
2022-12-03T07:47:37.092Z,2.00
2022-12-03T07:50:06.686Z,2.00
2022-12-03T07:52:34.390Z,2.10
2022-12-03T07:55:02.185Z,2.10
2022-12-03T07:57:29.854Z,2.10
2022-12-03T07:59:57.656Z,2.10
2022-12-03T08:02:25.335Z,2.10
2022-12-03T08:04:53.252Z,2.10
2022-12-03T08:07:22.509Z,2.10
2022-12-03T08:09:50.532Z,2.10
2022-12-03T08:12:39.842Z,2.00
2022-12-03T08:15:11.559Z,2.10
2022-12-03T08:17:40.399Z,2.10
2022-12-03T08:20:12.223Z,2.10
2022-12-03T08:22:41.850Z,2.10
2022-12-03T08:25:14.586Z,2.20
2022-12-03T08:27:42.293Z,2.20
2022-12-03T08:30:12.585Z,2.20
2022-12-03T08:32:40.458Z,2.20
2022-12-03T08:35:11.497Z,2.20
2022-12-03T08:37:39.342Z,2.20
2022-12-03T08:40:20.654Z,2.20
2022-12-03T08:42:48.339Z,2.20
2022-12-03T08:45:32.096Z,2.30
2022-12-03T08:48:00.494Z,2.30
2022-12-03T08:50:29.079Z,2.40
2022-12-03T08:52:59.943Z,2.40
2022-12-03T08:55:35.075Z,2.40
2022-12-03T08:58:07.182Z,2.40
2022-12-03T09:00:34.870Z,2.50
2022-12-03T09:03:02.540Z,2.50
2022-12-03T09:05:32.300Z,2.50
2022-12-03T09:08:00.156Z,2.60
2022-12-03T09:10:28.621Z,2.60
2022-12-03T09:12:57.677Z,2.60
2022-12-03T09:15:25.342Z,2.60
2022-12-03T09:17:53.032Z,2.60
2022-12-03T09:20:20.714Z,2.70
2022-12-03T09:22:48.387Z,2.70
2022-12-03T09:25:16.999Z,2.70
2022-12-03T09:27:44.720Z,2.70
2022-12-03T09:30:14.106Z,2.60
2022-12-03T09:32:41.902Z,2.60
2022-12-03T09:35:10.123Z,2.60
2022-12-03T09:37:37.807Z,2.60
2022-12-03T09:40:06.224Z,2.70
2022-12-03T09:42:34.152Z,2.70
2022-12-03T09:45:02.692Z,2.70
2022-12-03T09:47:31.934Z,2.70
2022-12-03T09:49:59.822Z,2.70
2022-12-03T09:52:28.298Z,2.70
2022-12-03T09:54:56.285Z,2.70
2022-12-03T09:57:24.265Z,2.80
2022-12-03T09:59:52.288Z,2.70
2022-12-03T10:02:21.874Z,2.80
2022-12-03T10:04:51.174Z,2.70
2022-12-03T10:07:19.177Z,2.70
2022-12-03T10:09:46.857Z,2.80
2022-12-03T10:12:15.073Z,2.80
2022-12-03T10:14:43.288Z,2.90
2022-12-03T10:17:12.425Z,2.90
2022-12-03T10:19:42.556Z,2.90
2022-12-03T10:22:11.614Z,2.90
2022-12-03T10:24:40.194Z,3.00
2022-12-03T10:27:21.821Z,3.00
2022-12-03T10:29:55.459Z,2.90
2022-12-03T10:32:25.630Z,2.90
2022-12-03T10:35:06.528Z,2.90
2022-12-03T10:37:35.607Z,2.90
2022-12-03T10:40:08.314Z,2.90
2022-12-03T10:42:37.690Z,2.90
2022-12-03T10:45:23.305Z,2.80
2022-12-03T10:48:04.799Z,2.70
2022-12-03T10:50:33.425Z,2.80
2022-12-03T10:53:02.581Z,2.70
2022-12-03T10:55:33.756Z,2.70
2022-12-03T10:58:01.456Z,2.80
2022-12-03T11:00:29.143Z,2.70
2022-12-03T11:02:57.465Z,2.70
2022-12-03T11:05:27.694Z,2.70
2022-12-03T11:07:56.050Z,2.70
2022-12-03T11:10:25.680Z,2.70
2022-12-03T11:13:20.359Z,2.70
2022-12-03T11:15:48.364Z,2.80
2022-12-03T11:18:31.581Z,2.70
2022-12-03T11:21:04.013Z,2.70
2022-12-03T11:23:58.925Z,2.70
2022-12-03T11:26:45.131Z,2.70
2022-12-03T11:29:15.331Z,2.70
2022-12-03T11:31:43.695Z,2.70
2022-12-03T11:34:40.592Z,2.70
2022-12-03T11:37:24.230Z,2.70
2022-12-03T11:40:10.612Z,2.70
2022-12-03T11:42:39.196Z,2.70
2022-12-03T11:45:17.411Z,2.80
2022-12-03T11:47:46.397Z,3.00
2022-12-03T11:50:20.730Z,4.00
2022-12-03T11:52:49.874Z,3.90
2022-12-03T11:55:19.837Z,3.80
2022-12-03T11:57:47.550Z,3.70
2022-12-03T12:00:21.796Z,4.00
2022-12-03T12:02:50.120Z,3.90
2022-12-03T12:05:19.782Z,3.60
2022-12-03T12:07:48.411Z,3.40
2022-12-03T12:10:35.629Z,3.30
2022-12-03T12:13:03.327Z,3.10
2022-12-03T12:15:42.373Z,3.10
2022-12-03T12:18:28.763Z,3.10
2022-12-03T12:20:56.454Z,3.00
2022-12-03T12:23:29.293Z,3.00
2022-12-03T12:26:06.349Z,2.90
2022-12-03T12:28:34.009Z,2.90
2022-12-03T12:31:03.097Z,2.90
2022-12-03T12:33:34.481Z,2.90
2022-12-03T12:36:06.262Z,2.90
2022-12-03T12:38:33.959Z,2.90
2022-12-03T12:41:03.450Z,3.00
2022-12-03T12:43:33.646Z,3.00
2022-12-03T12:46:45.434Z,3.00
2022-12-03T12:48:59.862Z,3.00
2022-12-03T12:51:27.826Z,2.90
2022-12-03T12:53:56.632Z,2.80
2022-12-03T12:56:25.882Z,2.90
2022-12-03T12:58:53.950Z,2.80
2022-12-03T13:01:26.115Z,2.80
2022-12-03T13:03:54.302Z,2.80
2022-12-03T13:06:23.700Z,2.70
2022-12-03T13:08:51.520Z,2.70
2022-12-03T13:11:29.648Z,2.80
2022-12-03T13:13:57.339Z,2.80
2022-12-03T13:16:28.827Z,2.80
2022-12-03T13:18:57.331Z,2.80
2022-12-03T13:21:26.043Z,2.80
2022-12-03T13:23:55.168Z,2.80
2022-12-03T13:29:14.439Z,2.80
2022-12-03T13:31:47.744Z,2.80
2022-12-03T13:34:17.722Z,2.90
2022-12-03T13:36:50.545Z,2.90
2022-12-03T13:39:27.269Z,2.90
2022-12-03T13:42:12.557Z,2.90
2022-12-03T13:44:42.738Z,2.80
2022-12-03T13:47:14.438Z,2.70
2022-12-03T13:49:42.572Z,2.80
2022-12-03T13:52:12.721Z,2.80
2022-12-03T13:54:40.697Z,2.70
2022-12-03T13:57:08.486Z,2.80
2022-12-03T13:59:36.178Z,2.80
2022-12-03T14:02:04.009Z,2.80
2022-12-03T14:04:33.088Z,2.90
2022-12-03T14:07:00.769Z,2.90
2022-12-03T14:09:28.518Z,2.90
2022-12-03T14:12:13.470Z,2.90
2022-12-03T14:14:41.178Z,2.80
2022-12-03T14:17:09.547Z,2.90
2022-12-03T14:19:39.689Z,2.90
2022-12-03T14:22:07.963Z,2.80
2022-12-03T14:24:35.661Z,2.80
2022-12-03T14:27:03.515Z,2.80
2022-12-03T14:29:31.216Z,2.70
2022-12-03T14:31:58.954Z,2.70
2022-12-03T14:34:26.721Z,2.70
2022-12-03T14:36:57.030Z,2.70
2022-12-03T14:39:24.717Z,2.70
2022-12-03T14:42:10.483Z,2.70
2022-12-03T14:44:38.227Z,2.70
2022-12-03T14:47:05.961Z,2.60
2022-12-03T14:49:33.837Z,2.70
2022-12-03T14:52:03.078Z,2.70
2022-12-03T14:54:30.878Z,2.70
2022-12-03T14:56:58.565Z,2.70
2022-12-03T14:59:28.004Z,2.70
2022-12-03T15:01:56.129Z,2.70
2022-12-03T15:04:23.951Z,2.70
2022-12-03T15:06:51.714Z,2.70
2022-12-03T15:09:21.072Z,2.60
2022-12-03T15:11:48.772Z,2.60
2022-12-03T15:14:16.441Z,2.60
2022-12-03T15:16:44.239Z,2.60
2022-12-03T15:19:12.021Z,2.60
2022-12-03T15:21:39.699Z,2.70
2022-12-03T15:24:07.769Z,2.70
2022-12-03T15:26:36.819Z,2.70
2022-12-03T15:29:04.502Z,2.70
2022-12-03T15:31:32.235Z,2.70
2022-12-03T15:34:00.115Z,2.60
2022-12-03T15:36:27.809Z,2.60
2022-12-03T15:38:56.415Z,2.60
2022-12-03T15:41:29.539Z,2.60
2022-12-03T15:43:59.346Z,2.60
2022-12-03T15:46:27.758Z,2.60
2022-12-03T15:48:56.298Z,2.60
2022-12-03T15:51:24.002Z,2.50
2022-12-03T15:53:51.713Z,2.60
2022-12-03T15:56:19.503Z,2.60
2022-12-03T15:58:47.176Z,2.60
2022-12-03T16:01:18.109Z,2.60
2022-12-03T16:03:46.324Z,2.60
2022-12-03T16:06:14.706Z,2.60
2022-12-03T16:08:42.441Z,2.60
2022-12-03T16:11:10.137Z,2.50
2022-12-03T16:13:37.797Z,2.50
2022-12-03T16:16:05.827Z,2.50
2022-12-03T16:18:34.937Z,2.60
2022-12-03T16:21:02.609Z,2.50
2022-12-03T16:23:30.277Z,2.60
2022-12-03T16:25:57.971Z,2.50
2022-12-03T16:28:25.625Z,2.50
2022-12-03T16:30:53.448Z,2.50
2022-12-03T16:33:27.212Z,2.50
2022-12-03T16:35:57.026Z,2.50
2022-12-03T16:38:24.737Z,2.50
2022-12-03T16:40:52.401Z,2.50
2022-12-03T16:43:20.083Z,2.50
2022-12-03T16:46:02.325Z,2.50
2022-12-03T16:48:30.551Z,2.50
2022-12-03T16:50:59.721Z,2.50
2022-12-03T16:53:27.446Z,2.50
2022-12-03T16:55:55.112Z,2.50
2022-12-03T16:58:22.796Z,2.60
2022-12-03T17:00:51.059Z,2.50
2022-12-03T17:03:18.940Z,2.50
2022-12-03T17:05:46.930Z,2.50
2022-12-03T17:08:16.834Z,2.60
2022-12-03T17:10:44.722Z,2.50
2022-12-03T17:13:12.504Z,2.60
2022-12-03T17:15:40.782Z,2.60
2022-12-03T17:18:08.948Z,2.60
2022-12-03T17:20:37.139Z,2.50
2022-12-03T17:23:05.083Z,2.50
2022-12-03T17:25:34.300Z,2.50
2022-12-03T17:28:02.010Z,2.50
2022-12-03T17:30:29.745Z,2.50
2022-12-03T17:32:57.477Z,2.50
2022-12-03T17:35:25.225Z,2.50
2022-12-03T17:37:53.061Z,2.60
2022-12-03T17:40:20.884Z,2.50
2022-12-03T17:42:49.901Z,2.50
2022-12-03T17:45:17.680Z,2.50
2022-12-03T17:47:45.354Z,2.50
2022-12-03T17:50:13.203Z,2.50
2022-12-03T17:52:41.006Z,2.50
2022-12-03T17:55:12.836Z,2.50
2022-12-03T17:57:42.119Z,2.50
2022-12-03T18:00:12.273Z,2.50
2022-12-03T18:02:39.985Z,2.50
2022-12-03T18:05:07.920Z,2.50
2022-12-03T18:07:35.682Z,2.50
2022-12-03T18:10:03.428Z,2.50
2022-12-03T18:12:31.136Z,2.50
2022-12-03T18:14:58.833Z,2.50
2022-12-03T18:17:27.854Z,2.50
2022-12-03T18:19:55.770Z,2.50
2022-12-03T18:22:23.674Z,2.50
2022-12-03T18:24:52.283Z,2.50
2022-12-03T18:27:20.862Z,2.50
2022-12-03T18:29:48.550Z,2.50
2022-12-03T18:32:28.325Z,2.50
2022-12-03T18:34:58.472Z,2.50
2022-12-03T18:37:27.435Z,2.50
2022-12-03T18:39:55.671Z,2.50
2022-12-03T18:42:24.032Z,2.50
2022-12-03T18:44:52.651Z,2.50
2022-12-03T18:47:21.179Z,2.40
2022-12-03T18:49:48.952Z,2.50
2022-12-03T18:52:18.678Z,2.50
2022-12-03T18:54:46.855Z,2.50
2022-12-03T18:57:14.637Z,2.50
2022-12-03T18:59:42.313Z,2.40
2022-12-03T19:02:26.646Z,2.50
2022-12-03T19:05:01.192Z,2.50
2022-12-03T19:07:30.280Z,2.50
2022-12-03T19:09:58.058Z,2.40
2022-12-03T19:12:25.939Z,2.40
2022-12-03T19:14:53.608Z,2.40
2022-12-03T19:17:21.438Z,2.40
2022-12-03T19:19:49.188Z,2.40
2022-12-03T19:22:16.895Z,2.40
2022-12-03T19:24:45.937Z,2.40
2022-12-03T19:27:13.622Z,2.40
2022-12-03T19:29:42.404Z,2.40
2022-12-03T19:32:10.106Z,2.40
2022-12-03T19:34:38.060Z,2.40
2022-12-03T19:37:05.819Z,2.40
2022-12-03T19:39:33.866Z,2.40
2022-12-03T19:42:02.925Z,2.30
2022-12-03T19:44:30.654Z,2.40
2022-12-03T19:46:58.361Z,2.40
2022-12-03T19:49:26.612Z,2.40
2022-12-03T19:51:54.402Z,2.40
2022-12-03T19:54:22.116Z,2.30
2022-12-03T19:56:49.857Z,2.30
2022-12-03T19:59:18.873Z,2.30
2022-12-03T20:01:46.648Z,2.30
2022-12-03T20:04:14.424Z,2.30
2022-12-03T20:06:42.169Z,2.30
2022-12-03T20:09:11.916Z,2.30
2022-12-03T20:11:40.651Z,2.30
2022-12-03T20:14:09.706Z,2.30
2022-12-03T20:16:38.947Z,2.30
2022-12-03T20:19:07.517Z,2.40
2022-12-03T20:21:36.565Z,2.30
2022-12-03T20:24:05.371Z,2.30
2022-12-03T20:26:33.435Z,2.30
2022-12-03T20:29:01.184Z,2.40
2022-12-03T20:31:29.689Z,2.40
2022-12-03T20:33:59.600Z,2.40
2022-12-03T20:36:27.965Z,2.40
2022-12-03T20:38:56.128Z,2.40
2022-12-03T20:41:24.151Z,2.40
2022-12-03T20:43:52.134Z,2.40
2022-12-03T20:46:20.805Z,2.40
2022-12-03T20:48:48.999Z,2.40
2022-12-03T20:51:19.170Z,2.40
2022-12-03T20:53:47.140Z,2.40
2022-12-03T20:56:18.293Z,2.40
2022-12-03T20:58:46.042Z,2.40
2022-12-03T21:01:16.162Z,2.40
2022-12-03T21:03:44.275Z,2.40
2022-12-03T21:06:11.962Z,2.40
2022-12-03T21:08:42.414Z,2.40
2022-12-03T21:11:10.791Z,2.40
2022-12-03T21:13:41.066Z,2.40
2022-12-03T21:16:10.158Z,2.40
2022-12-03T21:18:38.493Z,2.40
2022-12-03T21:21:06.673Z,2.40
2022-12-03T21:23:34.783Z,2.40
2022-12-03T21:26:05.013Z,2.40
2022-12-03T21:28:32.685Z,2.40
2022-12-03T21:31:00.944Z,2.40
2022-12-03T21:33:29.066Z,2.40
2022-12-03T21:35:56.872Z,2.40
2022-12-03T21:38:24.712Z,2.40
2022-12-03T21:40:52.412Z,2.40
2022-12-03T21:43:21.733Z,2.40
2022-12-03T21:45:49.829Z,2.40
2022-12-03T21:48:17.878Z,2.40
2022-12-03T21:50:45.981Z,2.40
2022-12-03T21:53:13.887Z,2.30
2022-12-03T21:55:41.869Z,2.40
2022-12-03T21:58:09.797Z,2.40
2022-12-03T22:00:38.923Z,2.40
2022-12-03T22:03:06.630Z,2.40
2022-12-03T22:05:34.333Z,2.40
2022-12-03T22:08:02.094Z,2.40
2022-12-03T22:10:29.789Z,2.40
2022-12-03T22:12:57.466Z,2.40
2022-12-03T22:15:25.228Z,2.40
2022-12-03T22:17:54.247Z,2.40
2022-12-03T22:20:21.949Z,2.40
2022-12-03T22:22:49.656Z,2.40
2022-12-03T22:25:17.348Z,2.40
2022-12-03T22:27:45.021Z,2.40
2022-12-03T22:30:12.854Z,2.40
2022-12-03T22:32:40.585Z,2.40
2022-12-03T22:35:10.040Z,2.40
2022-12-03T22:37:37.794Z,2.40
2022-12-03T22:40:05.969Z,2.40
2022-12-03T22:42:33.667Z,2.40
2022-12-03T22:45:01.352Z,2.40
2022-12-03T22:47:29.028Z,2.40
2022-12-03T22:49:57.058Z,2.40
2022-12-03T22:52:26.240Z,2.40
2022-12-03T22:54:54.007Z,2.40
2022-12-03T22:57:21.839Z,2.40
2022-12-03T22:59:49.546Z,2.40
2022-12-03T23:02:17.360Z,2.40
2022-12-03T23:04:45.058Z,2.40
2022-12-03T23:07:12.749Z,2.40
2022-12-03T23:09:41.775Z,2.40
2022-12-03T23:12:09.613Z,2.40
2022-12-03T23:14:37.317Z,2.40
2022-12-03T23:17:04.988Z,2.40
2022-12-03T23:19:32.703Z,2.40
2022-12-03T23:22:00.443Z,2.40
2022-12-03T23:24:28.623Z,2.40
2022-12-03T23:26:57.701Z,2.40
2022-12-03T23:29:25.411Z,2.40
2022-12-03T23:31:53.141Z,2.40
2022-12-03T23:34:20.972Z,2.40
2022-12-03T23:36:48.721Z,2.40
2022-12-03T23:39:16.452Z,2.30
2022-12-03T23:41:44.258Z,2.50
2022-12-03T23:44:13.294Z,2.60
2022-12-03T23:46:41.028Z,2.60
2022-12-03T23:49:08.780Z,2.50
2022-12-03T23:51:36.481Z,2.50
2022-12-03T23:54:04.164Z,2.40
2022-12-03T23:56:32.407Z,2.50
2022-12-03T23:59:00.448Z,2.40
